createdAt,value
2023-03-15T00:03:40.393Z,100987.84
2023-03-15T00:08:47.801Z,100986.94
2023-03-15T00:13:51.604Z,100987.84
2023-03-15T00:18:56.352Z,100997.28
2023-03-15T00:23:59.225Z,101011.06
2023-03-15T00:29:02.066Z,101015.44
2023-03-15T00:34:06.250Z,101022.41
2023-03-15T00:39:09.056Z,101027.69
2023-03-15T00:44:11.900Z,101027.72
2023-03-15T00:49:16.086Z,101039.81
2023-03-15T00:54:18.894Z,101044.97
2023-03-15T00:59:22.328Z,101056.16
2023-03-15T01:04:27.251Z,101069.88
2023-03-15T01:09:31.485Z,101096.47
2023-03-15T01:14:35.391Z,101109.28
2023-03-15T01:19:39.556Z,101130.75
2023-03-15T01:24:42.423Z,101135.81
2023-03-15T01:29:45.533Z,101150.38
2023-03-15T01:34:51.026Z,101153.78
2023-03-15T01:39:53.996Z,101161.44
2023-03-15T01:44:59.950Z,101163.03
2023-03-15T01:50:08.455Z,101168.13
2023-03-15T01:55:12.955Z,101174.94
2023-03-15T02:00:25.505Z,101180.00
2023-03-15T02:05:36.383Z,101185.00
2023-03-15T02:10:44.333Z,101197.00
2023-03-15T02:15:48.275Z,101203.78
2023-03-15T02:21:04.985Z,101210.63
2023-03-15T02:26:17.757Z,101211.31
2023-03-15T02:31:22.399Z,101229.34
2023-03-15T02:36:27.121Z,101231.94
2023-03-15T02:41:32.351Z,101245.88
2023-03-15T02:46:38.263Z,101246.81
2023-03-15T02:51:41.097Z,101253.47
2023-03-15T02:56:43.921Z,101269.69
2023-03-15T03:01:48.213Z,101273.97
2023-03-15T03:06:51.044Z,101273.78
2023-03-15T03:11:58.244Z,101293.44
2023-03-15T03:17:03.035Z,101297.72
2023-03-15T03:22:06.121Z,101305.28
2023-03-15T03:27:09.270Z,101326.72
2023-03-15T03:32:15.665Z,101333.59
2023-03-15T03:37:18.881Z,101339.69
2023-03-15T03:42:33.423Z,101354.38
2023-03-15T03:47:37.701Z,101371.03
2023-03-15T03:52:43.879Z,101377.22
2023-03-15T03:57:52.977Z,101378.22
2023-03-15T04:03:20.853Z,101372.44
2023-03-15T04:08:28.165Z,101384.59
2023-03-15T04:13:32.111Z,101396.56
2023-03-15T04:18:40.194Z,101398.88
2023-03-15T04:23:43.427Z,101403.00
2023-03-15T04:28:54.519Z,101403.69
2023-03-15T04:34:13.643Z,101422.53
2023-03-15T04:39:31.533Z,101421.56
2023-03-15T04:44:37.277Z,101432.69
2023-03-15T04:49:55.417Z,101442.88
2023-03-15T04:55:16.937Z,101447.75
2023-03-15T05:00:38.489Z,101453.66
2023-03-15T05:06:08.037Z,101450.00
2023-03-15T05:11:33.859Z,101462.84
2023-03-15T05:17:02.040Z,101468.78
2023-03-15T05:22:29.259Z,101474.63
2023-03-15T05:27:52.889Z,101489.16
2023-03-15T05:33:05.042Z,101484.97
2023-03-15T05:38:26.481Z,101492.66
2023-03-15T05:43:49.577Z,101507.69
2023-03-15T05:49:12.680Z,101515.44
2023-03-15T05:54:27.456Z,101523.03
2023-03-15T05:59:46.125Z,101529.75
2023-03-15T06:05:07.893Z,101540.06
2023-03-15T06:10:14.115Z,101552.47
2023-03-15T06:15:17.337Z,101562.97
2023-03-15T06:20:21.363Z,101576.63
2023-03-15T06:25:25.894Z,101580.97
2023-03-15T06:30:29.332Z,101584.00
2023-03-15T06:35:35.356Z,101588.34
2023-03-15T06:40:39.734Z,101574.59
2023-03-15T06:45:42.895Z,101585.88
2023-03-15T06:50:47.698Z,101592.00
2023-03-15T06:55:53.013Z,101607.44
2023-03-15T07:00:55.960Z,101602.94
2023-03-15T07:05:59.017Z,101616.84
2023-03-15T07:11:03.796Z,101627.13
2023-03-15T07:16:07.237Z,101626.97
2023-03-15T07:21:10.181Z,101639.75
2023-03-15T07:26:14.492Z,101640.09
2023-03-15T07:31:17.623Z,101642.13
2023-03-15T07:36:22.268Z,101655.75
2023-03-15T07:41:26.530Z,101653.13
2023-03-15T07:46:41.480Z,101665.63
2023-03-15T07:51:47.507Z,101673.97
2023-03-15T07:56:51.771Z,101691.06
2023-03-15T08:01:54.689Z,101697.69
2023-03-15T08:06:57.647Z,101694.09
2023-03-15T08:12:01.937Z,101699.25
2023-03-15T08:17:04.972Z,101701.63
2023-03-15T08:22:08.358Z,101718.31
2023-03-15T08:27:12.785Z,101710.72
2023-03-15T08:32:17.682Z,101724.78
2023-03-15T08:37:21.107Z,101724.97
2023-03-15T08:42:25.354Z,101731.19
2023-03-15T08:47:28.368Z,101739.06
2023-03-15T08:52:31.318Z,101730.53
2023-03-15T08:57:35.635Z,101724.69
2023-03-15T09:02:38.724Z,101715.31
2023-03-15T09:07:42.803Z,101719.84
2023-03-15T09:12:49.181Z,101715.63
2023-03-15T09:17:52.868Z,101720.06
2023-03-15T09:22:57.680Z,101716.84
2023-03-15T09:28:02.019Z,101719.66
2023-03-15T09:33:05.348Z,101717.94
2023-03-15T09:38:08.342Z,101720.75
2023-03-15T09:43:24.195Z,101718.22
2023-03-15T09:48:29.390Z,101728.69
2023-03-15T09:53:34.012Z,101739.13
2023-03-15T09:58:38.456Z,101739.97
2023-03-15T10:03:45.728Z,101731.25
2023-03-15T10:08:48.712Z,101742.59
2023-03-15T10:14:00.538Z,101738.25
2023-03-15T10:19:22.770Z,101736.53
2023-03-15T10:24:32.293Z,101746.94
2023-03-15T10:29:36.598Z,101752.16
2023-03-15T10:34:39.383Z,101765.13
2023-03-15T10:39:46.797Z,101778.16
2023-03-15T10:44:50.994Z,101776.38
2023-03-15T10:49:58.293Z,101791.16
2023-03-15T10:55:04.695Z,101797.22
2023-03-15T11:00:24.100Z,101814.53
2023-03-15T11:05:32.040Z,101825.72
2023-03-15T11:10:35.753Z,101820.34
2023-03-15T11:15:41.195Z,101817.44
2023-03-15T11:20:45.451Z,101823.38
2023-03-15T11:25:48.718Z,101823.94
2023-03-15T11:30:53.200Z,101829.28
2023-03-15T11:35:57.656Z,101821.53
2023-03-15T11:41:01.436Z,101820.59
2023-03-15T11:46:07.853Z,101804.84
2023-03-15T11:51:21.316Z,101807.34
2023-03-15T11:56:26.954Z,101797.84
2023-03-15T12:01:31.435Z,101800.38
2023-03-15T12:06:38.959Z,101810.00
2023-03-15T12:11:43.216Z,101815.09
2023-03-15T12:16:47.994Z,101829.75
2023-03-15T12:21:54.023Z,101822.25
2023-03-15T12:27:02.242Z,101816.97
2023-03-15T12:32:13.564Z,101825.81
2023-03-15T12:37:19.714Z,101824.91
2023-03-15T12:43:09.038Z,101815.19
2023-03-15T12:48:29.758Z,101812.53
2023-03-15T12:53:52.953Z,101797.53
2023-03-15T12:58:59.949Z,101779.13
2023-03-15T13:04:04.628Z,101791.31
2023-03-15T13:09:14.853Z,101788.97
2023-03-15T13:14:37.790Z,101790.56
2023-03-15T13:19:44.653Z,101785.22
2023-03-15T13:24:54.343Z,101787.97
2023-03-15T13:29:57.734Z,101782.75
2023-03-15T13:35:02.217Z,101788.78
2023-03-15T13:40:10.078Z,101778.31
2023-03-15T13:45:14.854Z,101784.41
2023-03-15T13:50:21.386Z,101788.53
2023-03-15T13:55:25.349Z,101796.13
2023-03-15T14:00:28.724Z,101794.69
2023-03-15T14:05:36.574Z,101796.59
2023-03-15T14:10:40.576Z,101794.81
2023-03-15T14:15:45.260Z,101794.69
2023-03-15T14:20:55.835Z,101806.03
2023-03-15T14:26:05.018Z,101785.44
2023-03-15T14:31:08.113Z,101795.19
2023-03-15T14:36:23.512Z,101779.38
2023-03-15T14:41:33.026Z,101781.25
2023-03-15T14:46:35.999Z,101780.34
2023-03-15T14:51:40.378Z,101782.91
2023-03-15T14:56:44.540Z,101791.63
2023-03-15T15:01:50.285Z,101794.34
2023-03-15T15:06:56.573Z,101788.31
2023-03-15T15:11:59.473Z,101778.78
2023-03-15T15:17:02.482Z,101777.91
2023-03-15T15:22:06.878Z,101778.00
2023-03-15T15:27:10.949Z,101782.34
2023-03-15T15:32:13.853Z,101769.25
2023-03-15T15:37:18.551Z,101764.06
2023-03-15T15:42:21.454Z,101759.69
2023-03-15T15:47:24.568Z,101766.72
2023-03-15T15:52:29.026Z,101768.50
2023-03-15T15:57:31.969Z,101772.88
2023-03-15T16:02:34.929Z,101764.25
2023-03-15T16:07:40.201Z,101772.06
2023-03-15T16:12:43.169Z,101772.94
2023-03-15T16:17:46.243Z,101779.00
2023-03-15T16:22:52.768Z,101780.78
2023-03-15T16:27:57.119Z,101779.88
2023-03-15T16:33:00.238Z,101789.34
2023-03-15T16:38:07.088Z,101788.50
2023-03-15T16:43:12.158Z,101791.91
2023-03-15T16:48:15.075Z,101795.34
2023-03-15T16:53:19.552Z,101816.88
2023-03-15T16:58:22.610Z,101813.41
2023-03-15T17:03:26.104Z,101817.69
2023-03-15T17:08:30.568Z,101810.75
2023-03-15T17:13:40.493Z,101806.34
2023-03-15T17:18:44.528Z,101808.03
2023-03-15T17:23:49.156Z,101808.78
2023-03-15T17:28:52.625Z,101800.06
2023-03-15T17:33:55.756Z,101802.53
2023-03-15T17:39:00.428Z,101794.69
2023-03-15T17:44:03.453Z,101804.09
2023-03-15T17:49:07.246Z,101811.88
2023-03-15T17:54:15.309Z,101811.69
2023-03-15T17:59:18.754Z,101814.28
2023-03-15T18:04:23.580Z,101805.50
2023-03-15T18:09:28.938Z,101818.44
2023-03-15T18:14:37.410Z,101829.53
2023-03-15T18:19:40.866Z,101832.16
2023-03-15T18:24:47.067Z,101835.53
2023-03-15T18:29:50.149Z,101833.75
2023-03-15T18:34:53.595Z,101836.28
2023-03-15T18:39:57.958Z,101835.44
2023-03-15T18:45:00.877Z,101834.59
2023-03-15T18:50:10.619Z,101826.63
2023-03-15T18:55:16.711Z,101815.22
2023-03-15T19:00:26.021Z,101821.22
2023-03-15T19:05:30.107Z,101814.28
2023-03-15T19:10:34.662Z,101821.19
2023-03-15T19:15:37.747Z,101821.19
2023-03-15T19:20:40.946Z,101815.03
2023-03-15T19:25:45.714Z,101815.13
2023-03-15T19:30:48.636Z,101817.47
2023-03-15T19:35:51.553Z,101807.13
2023-03-15T19:40:58.797Z,101801.09
2023-03-15T19:46:04.305Z,101803.72
2023-03-15T19:51:09.206Z,101793.47
2023-03-15T19:56:13.531Z,101789.94
2023-03-15T20:01:16.939Z,101795.97
2023-03-15T20:06:20.087Z,101789.06
2023-03-15T20:11:25.875Z,101783.91
2023-03-15T20:16:29.150Z,101798.59
2023-03-15T20:21:32.325Z,101800.50
2023-03-15T20:26:36.510Z,101795.44
2023-03-15T20:31:39.810Z,101795.50
2023-03-15T20:36:42.831Z,101790.34
2023-03-15T20:41:47.099Z,101785.19
2023-03-15T20:46:52.608Z,101784.31
2023-03-15T20:51:55.539Z,101779.22
2023-03-15T20:57:00.005Z,101786.97
2023-03-15T21:02:04.400Z,101777.47
2023-03-15T21:07:08.742Z,101761.94
2023-03-15T21:12:12.977Z,101764.56
2023-03-15T21:17:16.254Z,101757.59
2023-03-15T21:22:19.350Z,101749.84
2023-03-15T21:27:26.437Z,101742.94
2023-03-15T21:32:29.774Z,101742.97
2023-03-15T21:37:32.731Z,101736.03
2023-03-15T21:42:37.311Z,101736.03
2023-03-15T21:47:40.239Z,101729.88
2023-03-15T21:52:45.012Z,101728.19
2023-03-15T21:57:49.301Z,101725.56
2023-03-15T22:02:55.609Z,101721.34
2023-03-15T22:07:58.712Z,101709.25
2023-03-15T22:13:03.238Z,101716.91
2023-03-15T22:18:06.081Z,101713.47
2023-03-15T22:23:09.193Z,101706.56
2023-03-15T22:28:13.467Z,101709.16
2023-03-15T22:33:19.800Z,101709.94
2023-03-15T22:38:22.866Z,101716.03
2023-03-15T22:43:27.075Z,101697.88
2023-03-15T22:48:29.956Z,101701.22
2023-03-15T22:53:33.245Z,101698.75
2023-03-15T22:58:37.994Z,101703.94
2023-03-15T23:03:40.965Z,101696.16
2023-03-15T23:08:43.775Z,101680.63
2023-03-15T23:13:49.077Z,101674.59
2023-03-15T23:18:51.914Z,101678.06
2023-03-15T23:23:54.755Z,101682.31
2023-03-15T23:28:58.984Z,101678.84
2023-03-15T23:34:01.897Z,101678.88
2023-03-15T23:39:05.373Z,101679.75
2023-03-15T23:44:09.617Z,101694.38
2023-03-15T23:49:12.690Z,101687.53
2023-03-15T23:54:15.554Z,101681.50
2023-03-15T23:59:19.849Z,101665.94
